createdAt,value
2022-10-23T00:03:35.000Z,2.50
2022-10-23T00:23:34.000Z,2.80
2022-10-23T00:33:34.000Z,2.60
2022-10-23T00:43:34.000Z,2.90
2022-10-23T00:53:34.000Z,3.10
2022-10-23T01:03:34.000Z,2.30
2022-10-23T01:13:34.000Z,2.00
2022-10-23T01:23:33.000Z,3.10
2022-10-23T01:33:33.000Z,2.30
2022-10-23T01:53:33.000Z,2.00
2022-10-23T02:03:33.000Z,2.30
2022-10-23T02:13:33.000Z,3.30
2022-10-23T02:23:33.000Z,2.20
2022-10-23T02:33:33.000Z,1.90
2022-10-23T02:43:32.000Z,1.90
2022-10-23T02:53:32.000Z,2.40
2022-10-23T03:03:32.000Z,2.10
2022-10-23T03:23:32.000Z,2.60
2022-10-23T03:33:32.000Z,2.60
2022-10-23T03:43:32.000Z,2.00
2022-10-23T03:53:31.000Z,1.70
2022-10-23T04:03:31.000Z,2.10
2022-10-23T04:13:31.000Z,2.10
2022-10-23T04:23:31.000Z,1.40
2022-10-23T04:33:31.000Z,1.80
2022-10-23T04:53:31.000Z,1.60
2022-10-23T05:03:30.000Z,1.90
2022-10-23T05:13:30.000Z,1.70
2022-10-23T05:23:30.000Z,2.00
2022-10-23T05:33:30.000Z,1.70
2022-10-23T05:43:30.000Z,2.40
2022-10-23T05:53:30.000Z,1.50
2022-10-23T06:03:30.000Z,2.80
2022-10-23T06:23:29.000Z,2.70
2022-10-23T06:33:29.000Z,2.00
2022-10-23T06:43:29.000Z,2.30
2022-10-23T06:53:29.000Z,1.50
2022-10-23T07:03:29.000Z,1.50
2022-10-23T07:13:29.000Z,1.20
2022-10-23T07:23:29.000Z,1.10
2022-10-23T07:33:28.000Z,1.10
2022-10-23T07:53:28.000Z,1.10
2022-10-23T08:03:28.000Z,0.90
2022-10-23T08:13:28.000Z,1.60
2022-10-23T08:23:28.000Z,1.50
2022-10-23T08:33:28.000Z,1.10
2022-10-23T08:43:28.000Z,1.50
2022-10-23T08:53:27.000Z,1.30
2022-10-23T09:03:27.000Z,1.70
2022-10-23T09:23:27.000Z,0.70
2022-10-23T09:33:27.000Z,1.00
2022-10-23T09:43:27.000Z,0.80
2022-10-23T09:53:27.000Z,1.10
2022-10-23T10:03:26.000Z,1.10
2022-10-23T10:13:26.000Z,1.40
2022-10-23T10:23:26.000Z,1.10
2022-10-23T10:33:26.000Z,0.50
2022-10-23T10:53:26.000Z,0.60
2022-10-23T10:53:26.000Z,0.60
2022-10-23T10:53:26.000Z,0.60
2022-10-23T11:03:26.000Z,1.00
2022-10-23T11:13:25.000Z,1.30
2022-10-23T11:23:25.000Z,0.80
2022-10-23T11:33:25.000Z,0.70
2022-10-23T11:43:25.000Z,0.50
2022-10-23T11:53:25.000Z,1.10
2022-10-23T12:03:25.000Z,0.70
2022-10-23T12:23:25.000Z,0.90
2022-10-23T12:33:24.000Z,0.80
2022-10-23T12:43:24.000Z,0.60
2022-10-23T12:53:24.000Z,0.60
2022-10-23T13:03:24.000Z,0.80
2022-10-23T13:13:24.000Z,0.90
2022-10-23T13:23:24.000Z,0.60
2022-10-23T13:33:23.000Z,0.70
2022-10-23T13:53:23.000Z,1.00
2022-10-23T14:03:23.000Z,1.50
2022-10-23T14:13:23.000Z,0.90
2022-10-23T14:23:23.000Z,1.10
2022-10-23T14:33:23.000Z,1.00
2022-10-23T14:43:23.000Z,0.80
2022-10-23T14:53:22.000Z,1.50
2022-10-23T15:03:22.000Z,1.50
2022-10-23T15:23:22.000Z,0.90
2022-10-23T15:33:22.000Z,0.80
2022-10-23T15:43:22.000Z,1.30
2022-10-23T15:53:22.000Z,1.50
2022-10-23T16:03:21.000Z,1.00
2022-10-23T16:13:21.000Z,1.80
2022-10-23T16:23:21.000Z,1.60
2022-10-23T16:33:21.000Z,1.30
2022-10-23T16:53:21.000Z,1.40
2022-10-23T17:03:21.000Z,1.30
2022-10-23T17:13:20.000Z,1.10
2022-10-23T17:23:20.000Z,2.30
2022-10-23T17:33:20.000Z,1.50
2022-10-23T17:43:20.000Z,1.00
2022-10-23T17:53:20.000Z,1.20
2022-10-23T18:03:20.000Z,1.30
2022-10-23T18:23:20.000Z,1.20
2022-10-23T18:33:19.000Z,1.10
2022-10-23T18:33:19.000Z,1.10
2022-10-23T18:43:19.000Z,1.20
2022-10-23T18:53:19.000Z,0.90
2022-10-23T19:03:19.000Z,0.80
2022-10-23T19:13:19.000Z,0.80
2022-10-23T19:23:19.000Z,1.20
2022-10-23T19:33:19.000Z,1.10
2022-10-23T19:53:18.000Z,1.00
2022-10-23T20:03:18.000Z,1.20
2022-10-23T20:13:18.000Z,1.40
2022-10-23T20:23:18.000Z,0.90
2022-10-23T20:33:18.000Z,1.20
2022-10-23T20:43:18.000Z,0.70
2022-10-23T20:53:17.000Z,1.10
2022-10-23T21:03:17.000Z,1.10
2022-10-23T21:23:17.000Z,1.10
2022-10-23T21:33:17.000Z,1.30
2022-10-23T21:43:17.000Z,1.00
2022-10-23T21:53:17.000Z,1.30
2022-10-23T22:03:17.000Z,1.20
2022-10-23T22:13:16.000Z,2.10
2022-10-23T22:23:16.000Z,1.80
2022-10-23T22:33:16.000Z,1.20
2022-10-23T22:53:16.000Z,1.90
2022-10-23T23:03:16.000Z,1.20
2022-10-23T23:13:16.000Z,1.10
2022-10-23T23:23:15.000Z,1.50
2022-10-23T23:33:15.000Z,1.40
2022-10-23T23:43:15.000Z,1.50
2022-10-23T23:53:15.000Z,1.10
